KGUS/GUS METAR and TAF weather

Enter ICAO airport designator
Station Type Date Time Source
KGUS METAR 2019/08/22 02:56 UTC NOAA

KGUS 220256Z AUTO 24006KT 10SM FEW032 SCT048 OVC180 24/23 A2997 RMK AO2 SLP147 T02430229 53015 $


Station Type Date Time Source
KGUS Decoded METAR 2019/08/22 02:56 UTC NOAA

Station name not available
Aug 21, 2019 - 10:56 PM EDT / 2019.08.22 0256 UTC
Wind: from the WSW (240 degrees) at 7 MPH (6 KT):0
Visibility: 10 mile(s):0
Sky conditions: overcast
Temperature: 75.7 F (24.3 C)
Dew Point: 73.2 F (22.9 C)
Relative Humidity: 91%
Pressure (altimeter): 29.97 in. Hg (1014 hPa)
Pressure tendency: 0.04 inches (1.5 hPa) higher than three hours ago
ob: KGUS 220256Z AUTO 24006KT 10SM FEW032 SCT048 OVC180 24/23 A2997 RMK AO2 SLP147 T02430229 53015
cycle: 3

Station Type Date Time Source
KGUS TAF 2019/08/22 03:09 UTC NOAA

TAF TAF KGUS 220300Z 2203/2309 VRB06KT 9999 BKN020 QNH2991INS
BECMG 2206/2207 04009KT 4800 -SHRA BR BKN015 QNH2996INS
BECMG 2211/2212 VRB06KT 2400 BR OVC003 QNH2996INS
BECMG 2214/2215 04009KT 9999 NSW SCT050 QNH2997INS TX27/2221Z TN20/2303Z

Example: see airport list